Time;durP1;ratioP1;P1;durP2;ratioP2;P2;SDS_P1;SDS_P2;PMS_P1;PMS_P2;Temp;Humidity;BMP_temperature;BMP_pressure;BME280_temperature;BME280_humidity;BME280_pressure;Samples;Min_cycle;Max_cycle;Signal;HPM_P1;HPM_P2
2021/11/26 00:00:30;;;;;;;23.55;14.48;;;;;;;1.90;91.36;98522.53;5042739;28;20076;-63
2021/11/26 00:02:56;;;;;;;25.05;14.75;;;;;;;1.82;91.09;98522.75;5044953;28;20052;-63
2021/11/26 00:05:21;;;;;;;24.48;15.00;;;;;;;1.74;91.75;98515.00;5043679;28;20893;-63
2021/11/26 00:07:47;;;;;;;27.52;14.48;;;;;;;1.66;91.81;98512.56;5043379;28;20028;-63
2021/11/26 00:10:12;;;;;;;24.13;13.80;;;;;;;1.65;92.33;98510.94;5044722;28;20032;-62
2021/11/26 00:12:39;;;;;;;25.08;14.35;;;;;;;1.65;92.27;98511.75;5044328;28;20055;-63
2021/11/26 00:15:17;;;;;;;26.02;14.13;;;;;;;1.73;91.92;98503.63;5044209;28;20104;-63
2021/11/26 00:17:49;;;;;;;24.98;13.18;;;;;;;1.64;91.66;98499.53;5044147;28;20384;-63
2021/11/26 00:20:15;;;;;;;21.55;13.48;;;;;;;1.53;92.16;98499.34;5043240;28;20464;-62
2021/11/26 00:22:40;;;;;;;24.98;14.60;;;;;;;1.53;92.87;98492.22;5043572;28;20029;-63
2021/11/26 00:25:07;;;;;;;15.00;8.50;;;;;;;1.56;92.91;98491.81;5043546;28;20060;-63
2021/11/26 00:27:33;;;;;;;25.90;14.77;;;;;;;1.56;93.11;98486.53;5041835;28;20475;-63
2021/11/26 00:29:58;;;;;;;24.85;12.98;;;;;;;1.51;93.23;98488.97;5043292;28;20119;-63
2021/11/26 00:32:24;;;;;;;27.67;15.05;;;;;;;1.51;93.80;98479.22;5041820;28;20033;-62
2021/11/26 00:34:49;;;;;;;26.15;14.85;;;;;;;1.53;94.04;98486.13;5043990;28;20649;-63
2021/11/26 00:37:15;;;;;;;33.50;14.65;;;;;;;1.58;94.78;98479.22;5043309;28;20087;-63
2021/11/26 00:39:40;;;;;;;29.42;14.15;;;;;;;1.67;94.43;98477.19;5043945;28;20844;-63
2021/11/26 00:42:06;;;;;;;27.38;13.60;;;;;;;1.69;94.23;98475.16;5043889;28;20135;-63
2021/11/26 00:44:31;;;;;;;28.38;14.05;;;;;;;1.74;94.11;98467.44;5043517;28;20340;-63
2021/11/26 00:46:57;;;;;;;22.63;12.55;;;;;;;1.71;94.12;98462.56;5042638;28;20048;-63
2021/11/26 00:49:22;;;;;;;26.00;13.27;;;;;;;1.75;94.87;98455.88;5042983;28;20964;-63
2021/11/26 00:51:48;;;;;;;25.20;14.30;;;;;;;1.75;94.71;98449.75;5042565;28;20045;-63
2021/11/26 00:54:13;;;;;;;42.50;14.82;;;;;;;1.71;94.99;98454.63;5042026;28;20032;-63
2021/11/26 00:56:39;;;;;;;35.72;14.57;;;;;;;1.65;95.00;98458.91;5035731;28;20769;-62
2021/11/26 00:59:04;;;;;;;36.33;14.90;;;;;;;1.70;95.28;98450.38;5042774;28;20059;-63
2021/11/26 01:01:30;;;;;;;27.75;12.85;;;;;;;1.68;95.54;98444.47;5038226;28;20069;-63
2021/11/26 01:03:55;;;;;;;28.67;13.50;;;;;;;1.55;95.71;98431.25;5037830;28;20552;-63
2021/11/26 01:06:21;;;;;;;29.75;14.23;;;;;;;1.58;95.94;98430.88;5042438;28;20490;-62
2021/11/26 01:08:47;;;;;;;30.77;15.45;;;;;;;1.59;95.51;98421.94;5042409;28;20029;-62
2021/11/26 01:11:12;;;;;;;28.20;13.82;;;;;;;1.58;95.79;98420.31;5040570;28;20051;-62
2021/11/26 01:13:38;;;;;;;31.77;13.50;;;;;;;1.44;95.70;98409.72;5037136;28;20043;-63
2021/11/26 01:16:04;;;;;;;28.48;14.82;;;;;;;1.25;96.16;98421.13;5039271;28;20147;-62
2021/11/26 01:18:29;;;;;;;30.67;14.85;;;;;;;1.21;96.27;98417.25;5042763;28;20036;-63
2021/11/26 01:20:55;;;;;;;32.63;14.48;;;;;;;1.26;96.75;98414.81;5042357;28;20044;-63
2021/11/26 01:23:20;;;;;;;34.28;12.52;;;;;;;1.25;96.74;98416.66;5041577;28;20039;-63
2021/11/26 01:25:46;;;;;;;29.15;14.93;;;;;;;1.26;96.85;98414.81;5041321;28;20574;-63
2021/11/26 01:28:11;;;;;;;32.10;14.50;;;;;;;1.20;96.74;98408.53;5042036;28;20033;-63
2021/11/26 01:30:44;;;;;;;39.22;15.27;;;;;;;1.19;96.49;98406.06;5042251;28;20483;-62
2021/11/26 01:33:11;;;;;;;35.90;13.32;;;;;;;1.10;96.66;98402.00;5041202;28;20024;-63
2021/11/26 01:35:37;;;;;;;33.90;13.38;;;;;;;1.14;96.96;98413.78;5040195;28;20229;-63
2021/11/26 01:38:04;;;;;;;28.77;13.05;;;;;;;1.19;96.76;98400.78;5035960;28;20116;-63
2021/11/26 01:40:30;;;;;;;29.02;13.60;;;;;;;1.17;96.64;98403.63;5040498;28;20127;-62
2021/11/26 01:42:56;;;;;;;30.75;13.07;;;;;;;1.18;96.70;98399.19;5037688;28;20043;-63
2021/11/26 01:45:21;;;;;;;30.00;13.73;;;;;;;1.17;96.67;98394.91;5040118;28;20687;-61
2021/11/26 01:47:47;;;;;;;30.33;13.57;;;;;;;1.18;97.23;98404.47;5040623;28;20039;-62
2021/11/26 01:50:13;;;;;;;34.17;13.93;;;;;;;1.29;96.93;98394.09;5040241;28;20055;-62
2021/11/26 01:52:38;;;;;;;28.67;13.90;;;;;;;1.34;97.04;98393.50;5040873;28;20394;-61
2021/11/26 01:55:05;;;;;;;30.70;11.45;;;;;;;1.44;96.95;98383.31;5036358;28;20083;-61
2021/11/26 01:57:31;;;;;;;31.70;12.30;;;;;;;1.51;96.94;98388.63;5036581;28;20025;-61
2021/11/26 01:59:56;;;;;;;29.80;12.82;;;;;;;1.51;96.41;98384.13;5039080;28;20547;-61
2021/11/26 02:02:22;;;;;;;30.55;11.90;;;;;;;1.61;96.07;98381.09;5042198;28;20041;-62
2021/11/26 02:04:47;;;;;;;33.65;12.25;;;;;;;1.60;96.02;98379.47;5035399;28;20135;-61
2021/11/26 02:07:13;;;;;;;34.95;11.90;;;;;;;1.71;95.39;98372.75;5023280;28;20037;-61
2021/11/26 02:09:38;;;;;;;33.90;12.73;;;;;;;1.69;95.49;98364.19;5038294;28;20040;-62
2021/11/26 02:12:04;;;;;;;25.30;10.75;;;;;;;1.73;95.26;98357.50;5039320;28;20132;-62
2021/11/26 02:14:30;;;;;;;25.70;10.40;;;;;;;1.69;95.41;98353.63;5041592;28;20391;-62
2021/11/26 02:16:56;;;;;;;35.70;12.25;;;;;;;1.75;94.98;98352.81;5035664;28;20068;-62
2021/11/26 02:19:22;;;;;;;30.25;11.80;;;;;;;1.80;94.78;98358.31;5038956;28;20167;-62
2021/11/26 02:21:48;;;;;;;27.05;10.48;;;;;;;1.77;94.56;98345.47;5035283;28;20057;-62
2021/11/26 02:24:13;;;;;;;25.98;10.38;;;;;;;1.76;94.71;98343.06;5041915;28;20180;-62
2021/11/26 02:26:41;;;;;;;24.02;10.32;;;;;;;1.77;94.20;98336.75;5040537;28;20777;-62
2021/11/26 02:29:07;;;;;;;28.50;10.88;;;;;;;1.73;94.43;98328.44;5042013;28;20607;-61
2021/11/26 02:31:32;;;;;;;32.03;10.55;;;;;;;1.74;94.58;98324.75;5040444;28;20126;-62
2021/11/26 02:33:58;;;;;;;23.70;10.77;;;;;;;1.62;94.97;98316.69;5041027;28;20024;-62
2021/11/26 02:36:23;;;;;;;28.55;12.57;;;;;;;1.68;94.99;98307.13;5034600;28;20045;-61
2021/11/26 02:38:49;;;;;;;22.13;9.85;;;;;;;1.66;94.90;98303.88;5036230;28;20021;-61
2021/11/26 02:41:14;;;;;;;25.58;11.88;;;;;;;1.60;94.83;98308.16;5041260;28;20033;-61
2021/11/26 02:43:40;;;;;;;31.88;11.32;;;;;;;1.58;95.00;98298.81;5040431;28;20052;-62
2021/11/26 02:46:05;;;;;;;26.67;10.57;;;;;;;1.58;95.02;98293.53;5041419;28;20036;-62
2021/11/26 02:48:31;;;;;;;20.58;9.63;;;;;;;1.39;95.28;98288.06;5040500;28;20423;-62
2021/11/26 02:50:56;;;;;;;22.00;11.57;;;;;;;1.22;95.91;98285.06;5035574;28;20057;-64
2021/11/26 02:53:22;;;;;;;24.70;11.10;;;;;;;1.14;96.75;98274.72;5036882;28;20040;-62
2021/11/26 02:55:47;;;;;;;31.40;15.00;;;;;;;1.03;96.95;98280.63;5040177;28;20048;-62
2021/11/26 02:58:13;;;;;;;31.00;14.23;;;;;;;1.00;97.18;98273.09;5040518;28;20758;-62
2021/11/26 03:00:40;;;;;;;35.45;15.45;;;;;;;0.98;97.35;98281.22;5041397;28;20045;-62
2021/11/26 03:03:06;;;;;;;23.50;9.50;;;;;;;1.01;96.97;98267.63;5038552;28;20027;-63
2021/11/26 03:05:31;;;;;;;29.67;14.55;;;;;;;1.03;97.03;98270.06;5036997;28;20049;-62
2021/11/26 03:07:57;;;;;;;22.15;10.82;;;;;;;1.00;96.96;98259.91;5040669;28;20049;-62
2021/11/26 03:10:23;;;;;;;20.75;12.68;;;;;;;0.93;97.42;98262.56;5039918;28;20053;-62
2021/11/26 03:12:51;;;;;;;32.95;13.95;;;;;;;1.00;97.39;98250.19;5041193;28;20048;-62
2021/11/26 03:15:16;;;;;;;32.92;14.60;;;;;;;0.97;97.05;98247.13;5040902;28;20514;-61
2021/11/26 03:17:42;;;;;;;27.90;14.10;;;;;;;1.01;97.00;98256.25;5041592;28;20032;-62
2021/11/26 03:20:09;;;;;;;30.52;12.52;;;;;;;1.04;97.03;98254.00;5039793;28;20143;-61
2021/11/26 03:22:34;;;;;;;22.25;10.57;;;;;;;0.98;97.15;98241.66;5039573;28;20100;-62
2021/11/26 03:25:01;;;;;;;29.88;13.77;;;;;;;1.01;97.33;98238.59;5053257;28;20029;-62
2021/11/26 03:27:27;;;;;;;36.35;14.07;;;;;;;1.01;97.31;98229.88;5037468;28;20053;-62
2021/11/26 03:29:52;;;;;;;34.42;14.77;;;;;;;0.98;96.96;98233.72;5036672;28;20044;-62
2021/11/26 03:32:18;;;;;;;27.00;12.20;;;;;;;0.98;97.38;98225.00;5041195;28;20408;-62
2021/11/26 03:34:43;;;;;;;35.65;20.23;;;;;;;0.85;97.71;98215.28;5037852;28;20376;-62
2021/11/26 03:37:09;;;;;;;23.90;12.40;;;;;;;0.84;98.07;98208.38;5043979;28;20392;-62
2021/11/26 03:39:34;;;;;;;32.85;14.15;;;;;;;0.83;98.14;98212.84;5045689;28;20725;-62
2021/11/26 03:42:00;;;;;;;27.30;12.18;;;;;;;0.80;97.92;98209.78;5043997;28;20136;-62
2021/11/26 03:44:25;;;;;;;20.55;10.20;;;;;;;0.84;97.94;98201.25;5043793;28;20116;-62
2021/11/26 03:46:51;;;;;;;22.00;8.80;;;;;;;0.76;98.01;98206.75;5043778;28;20101;-62
2021/11/26 03:49:16;;;;;;;34.13;14.80;;;;;;;0.71;98.10;98200.47;5039702;28;20064;-62
2021/11/26 03:51:42;;;;;;;16.15;8.50;;;;;;;0.69;97.98;98194.59;5043727;28;20033;-62
2021/11/26 03:54:07;;;;;;;32.90;15.15;;;;;;;0.69;97.58;98194.59;5042495;28;20084;-62
2021/11/26 03:56:33;;;;;;;26.75;12.40;;;;;;;0.74;97.46;98186.88;5041990;28;20491;-62
2021/11/26 03:58:58;;;;;;;23.35;11.45;;;;;;;0.58;98.03;98186.28;5043678;28;20037;-62
2021/11/26 04:01:24;;;;;;;31.83;16.05;;;;;;;0.60;98.23;98188.69;5037201;28;20053;-62
2021/11/26 04:03:49;;;;;;;31.83;14.80;;;;;;;0.56;98.32;98185.66;5040436;28;20032;-62
2021/11/26 04:06:15;;;;;;;22.67;11.85;;;;;;;0.57;98.58;98176.72;5042168;28;20162;-62
2021/11/26 04:08:40;;;;;;;16.42;8.95;;;;;;;0.56;98.66;98179.59;5044159;28;20025;-62
2021/11/26 04:11:06;;;;;;;28.23;14.60;;;;;;;0.58;98.26;98173.09;5044219;28;20037;-62
2021/11/26 04:13:31;;;;;;;32.60;14.82;;;;;;;0.56;98.87;98169.84;5043917;28;20037;-62
2021/11/26 04:16:02;;;;;;;21.95;10.45;;;;;;;0.68;98.49;98171.88;5041125;28;20099;-62
2021/11/26 04:18:29;;;;;;;33.55;15.43;;;;;;;0.66;98.47;98168.63;5043167;28;20033;-62
2021/11/26 04:20:54;;;;;;;25.98;13.32;;;;;;;0.66;98.50;98163.34;5040231;28;20161;-62
2021/11/26 04:23:20;;;;;;;27.20;11.98;;;;;;;0.66;98.63;98166.00;5041932;28;20025;-63
2021/11/26 04:25:45;;;;;;;36.90;16.17;;;;;;;0.69;98.65;98155.84;5043648;28;20069;-62
2021/11/26 04:28:11;;;;;;;27.25;13.27;;;;;;;0.59;98.60;98160.72;5043829;28;20048;-62
2021/11/26 04:30:36;;;;;;;35.30;12.93;;;;;;;0.62;98.63;98161.13;5042294;28;20157;-62
2021/11/26 04:33:02;;;;;;;32.50;14.65;;;;;;;0.69;98.57;98162.94;5040874;28;20071;-62
2021/11/26 04:35:27;;;;;;;36.97;15.25;;;;;;;0.62;98.80;98158.50;5038084;28;20107;-61
2021/11/26 04:37:53;;;;;;;27.92;13.45;;;;;;;0.60;98.46;98155.25;5042792;28;20039;-62
2021/11/26 04:40:18;;;;;;;26.95;13.52;;;;;;;0.55;98.83;98147.13;5043098;28;20531;-62
2021/11/26 04:42:44;;;;;;;32.05;14.10;;;;;;;0.60;98.58;98143.88;5042095;28;20052;-62
2021/11/26 04:45:11;;;;;;;39.97;16.60;;;;;;;0.51;98.81;98142.47;5040273;28;20136;-65
2021/11/26 04:47:37;;;;;;;35.85;16.85;;;;;;;0.55;99.56;98139.22;5043831;28;20037;-62
2021/11/26 04:50:04;;;;;;;41.97;16.33;;;;;;;0.57;98.67;98128.47;5042195;28;20409;-62
2021/11/26 04:52:30;;;;;;;37.60;16.75;;;;;;;0.53;99.18;98122.00;5043013;28;20140;-62
2021/11/26 04:54:56;;;;;;;34.10;15.50;;;;;;;0.56;99.00;98117.09;5043193;28;20475;-62
2021/11/26 04:57:21;;;;;;;33.70;15.85;;;;;;;0.59;98.40;98116.69;5041590;28;20091;-62
2021/11/26 04:59:47;;;;;;;33.03;13.43;;;;;;;0.61;98.64;98116.50;5043569;28;20063;-62
2021/11/26 05:02:13;;;;;;;39.17;16.88;;;;;;;0.55;98.63;98109.38;5042385;28;20047;-63
2021/11/26 05:04:38;;;;;;;29.45;14.00;;;;;;;0.53;98.82;98109.63;5042377;28;20053;-62
2021/11/26 05:07:04;;;;;;;31.38;14.15;;;;;;;0.51;98.76;98095.00;5041242;28;20481;-62
2021/11/26 05:09:29;;;;;;;35.17;16.92;;;;;;;0.56;98.71;98095.22;5041228;28;20049;-62
2021/11/26 05:11:55;;;;;;;36.55;16.35;;;;;;;0.62;98.99;98084.66;5042475;28;20045;-62
2021/11/26 05:14:23;;;;;;;36.13;14.82;;;;;;;0.56;99.02;98088.09;5043404;28;20523;-62
2021/11/26 05:16:48;;;;;;;34.17;14.02;;;;;;;0.56;98.79;98088.09;5033063;28;20045;-62
2021/11/26 05:19:14;;;;;;;27.20;12.25;;;;;;;0.59;98.56;98089.50;5042781;28;20047;-62
2021/11/26 05:21:39;;;;;;;28.08;12.52;;;;;;;0.58;98.62;98078.16;5041692;28;20073;-62
2021/11/26 05:24:05;;;;;;;24.98;10.68;;;;;;;0.52;98.88;98072.91;5038903;28;20045;-61
2021/11/26 05:26:30;;;;;;;28.02;11.40;;;;;;;0.49;99.20;98068.84;5049025;28;20045;-61
2021/11/26 05:28:56;;;;;;;37.25;15.35;;;;;;;0.52;99.12;98063.16;5039412;28;20037;-62
2021/11/26 05:31:22;;;;;;;36.88;16.35;;;;;;;0.50;99.33;98059.94;5036319;28;20530;-62
2021/11/26 05:33:48;;;;;;;32.83;13.32;;;;;;;0.54;98.97;98050.56;5040524;28;20090;-62
2021/11/26 05:36:14;;;;;;;34.90;15.52;;;;;;;0.46;99.35;98040.25;5039145;28;20674;-62
2021/11/26 05:38:39;;;;;;;45.13;18.15;;;;;;;0.47;99.70;98041.88;5041017;28;20025;-63
2021/11/26 05:41:05;;;;;;;36.72;16.90;;;;;;;0.41;100.00;98040.06;5039711;28;20781;-62
2021/11/26 05:43:30;;;;;;;44.78;19.23;;;;;;;0.45;99.74;98030.75;5040944;28;20138;-62
2021/11/26 05:45:56;;;;;;;27.58;14.65;;;;;;;0.35;99.68;98025.06;5039920;28;20451;-62
2021/11/26 05:48:21;;;;;;;41.35;16.90;;;;;;;0.36;100.00;98027.50;5041165;28;20032;-62
2021/11/26 05:50:47;;;;;;;51.08;17.88;;;;;;;0.34;99.64;98012.91;5047358;28;20045;-61
2021/11/26 05:53:12;;;;;;;39.30;16.05;;;;;;;0.38;100.00;98019.41;5039540;28;20063;-61
2021/11/26 05:55:38;;;;;;;37.78;14.38;;;;;;;0.37;100.00;98008.03;5041946;28;20049;-62
2021/11/26 05:58:04;;;;;;;35.17;14.65;;;;;;;0.43;99.71;98011.69;5043005;28;20431;-61
2021/11/26 06:00:30;;;;;;;38.35;15.13;;;;;;;0.44;99.62;98002.75;5039833;28;20513;-61
2021/11/26 06:02:57;;;;;;;37.47;15.40;;;;;;;0.37;99.49;98008.03;5040600;28;20033;-62
2021/11/26 06:05:23;;;;;;;29.60;13.10;;;;;;;0.37;99.86;98008.03;5040637;28;20503;-61
2021/11/26 06:07:49;;;;;;;43.35;17.13;;;;;;;0.39;100.00;97999.91;5038514;28;20059;-61
2021/11/26 06:10:15;;;;;;;42.40;16.90;;;;;;;0.37;100.00;97999.31;5041738;28;20029;-61
2021/11/26 06:12:41;;;;;;;32.47;13.05;;;;;;;0.38;99.93;97993.03;5040748;28;20041;-62
2021/11/26 06:15:08;;;;;;;35.63;14.50;;;;;;;0.39;99.95;97992.81;5039103;28;20035;-61
2021/11/26 06:17:33;;;;;;;36.33;15.38;;;;;;;0.40;100.00;97983.06;5037472;28;20024;-61
2021/11/26 06:19:59;;;;;;;33.83;14.43;;;;;;;0.42;100.00;97983.69;5037562;28;20655;-61
2021/11/26 06:22:24;;;;;;;37.22;15.88;;;;;;;0.41;100.00;97979.44;5040821;28;20048;-61
2021/11/26 06:24:50;;;;;;;37.80;15.45;;;;;;;0.47;99.97;97978.59;5041968;28;20511;-63
2021/11/26 06:27:15;;;;;;;40.83;16.50;;;;;;;0.48;99.41;97972.31;5040623;28;20522;-62
2021/11/26 06:29:41;;;;;;;39.83;16.23;;;;;;;0.53;99.70;97969.88;5035496;28;20111;-62
2021/11/26 06:32:06;;;;;;;37.72;16.75;;;;;;;0.58;99.60;97966.63;5039226;28;20074;-61
2021/11/26 06:34:32;;;;;;;37.67;17.25;;;;;;;0.45;99.38;97959.56;5040774;28;20107;-62
2021/11/26 06:36:57;;;;;;;31.85;13.45;;;;;;;0.47;99.25;97965.41;5039802;28;20371;-63
2021/11/26 06:39:23;;;;;;;44.38;16.65;;;;;;;0.45;99.20;97970.13;5040585;28;20080;-63
2021/11/26 06:41:50;;;;;;;33.10;14.30;;;;;;;0.47;99.38;97970.69;5040831;28;20037;-63
2021/11/26 06:44:15;;;;;;;38.85;14.05;;;;;;;0.49;98.85;97968.66;5041326;28;20024;-63
2021/11/26 06:46:41;;;;;;;36.25;14.35;;;;;;;0.48;98.77;97961.78;5040661;28;20720;-62
2021/11/26 06:49:06;;;;;;;35.30;14.15;;;;;;;0.51;99.18;97957.91;5040307;28;20033;-63
2021/11/26 06:51:32;;;;;;;25.02;11.57;;;;;;;0.47;99.38;97951.44;5040260;28;20068;-63
2021/11/26 06:53:57;;;;;;;44.83;15.43;;;;;;;0.49;99.26;97963.38;5033985;28;20057;-63
2021/11/26 06:56:23;;;;;;;32.88;13.60;;;;;;;0.61;98.90;97960.91;5040441;28;20051;-63
2021/11/26 06:58:49;;;;;;;32.97;11.05;;;;;;;0.64;98.83;97952.56;5039934;28;20120;-62
2021/11/26 07:01:14;;;;;;;23.17;9.02;;;;;;;0.72;98.21;97962.06;5040067;28;20041;-62
2021/11/26 07:03:40;;;;;;;34.97;13.57;;;;;;;0.82;98.07;97955.34;5040726;28;20455;-62
2021/11/26 07:06:05;;;;;;;37.92;13.07;;;;;;;0.92;97.47;97949.59;5039247;28;20507;-63
2021/11/26 07:08:31;;;;;;;33.00;12.63;;;;;;;1.00;97.69;97945.91;5039822;28;20025;-62
2021/11/26 07:10:56;;;;;;;32.25;14.10;;;;;;;0.99;97.70;97946.94;5041007;28;20049;-62
2021/11/26 07:13:22;;;;;;;38.17;14.15;;;;;;;1.00;97.59;97941.44;5039884;28;20578;-61
2021/11/26 07:15:48;;;;;;;40.67;16.83;;;;;;;1.06;98.14;97943.22;5040541;28;20053;-61
2021/11/26 07:18:13;;;;;;;26.25;11.35;;;;;;;1.10;97.59;97932.25;5040619;28;20052;-62
2021/11/26 07:20:40;;;;;;;40.65;15.25;;;;;;;1.14;98.06;97928.97;5039980;28;20051;-62
2021/11/26 07:23:06;;;;;;;39.60;15.50;;;;;;;1.11;97.59;97929.41;5040005;28;20021;-61
2021/11/26 07:25:31;;;;;;;39.15;17.00;;;;;;;1.04;98.08;97924.16;5039839;28;20075;-64
2021/11/26 07:27:57;;;;;;;44.00;19.63;;;;;;;1.13;97.88;97918.63;5040121;28;20124;-63
2021/11/26 07:30:22;;;;;;;43.45;17.42;;;;;;;1.10;98.18;97911.13;5040050;28;20175;-63
2021/11/26 07:32:49;;;;;;;45.50;16.60;;;;;;;1.01;97.91;97908.75;5039666;28;20072;-61
2021/11/26 07:35:15;;;;;;;39.50;15.60;;;;;;;1.04;97.74;97905.69;5038430;28;20391;-61
2021/11/26 07:37:41;;;;;;;19.52;8.57;;;;;;;1.08;97.71;97914.78;5040173;28;20127;-62
2021/11/26 07:40:08;;;;;;;44.47;16.23;;;;;;;1.08;98.06;97904.25;5039578;28;20044;-61
2021/11/26 07:42:34;;;;;;;43.65;17.00;;;;;;;1.02;97.92;97902.47;5036311;28;20041;-62
2021/11/26 07:45:00;;;;;;;44.78;17.70;;;;;;;1.07;98.39;97894.72;5039165;28;20029;-61
2021/11/26 07:47:25;;;;;;;41.17;18.38;;;;;;;1.00;98.35;97903.69;5039396;28;20571;-61
2021/11/26 07:49:52;;;;;;;47.63;17.55;;;;;;;1.07;98.00;97897.38;5037067;28;20033;-61
2021/11/26 07:52:18;;;;;;;42.60;17.55;;;;;;;1.03;98.16;97890.88;5040075;28;20045;-62
2021/11/26 07:54:44;;;;;;;40.47;17.90;;;;;;;1.06;98.50;97887.00;5036650;28;20079;-62
2021/11/26 07:57:10;;;;;;;45.03;19.08;;;;;;;1.06;98.24;97887.81;5040431;28;20500;-61
2021/11/26 07:59:36;;;;;;;40.42;17.77;;;;;;;1.13;98.50;97884.34;5040269;28;20033;-61
2021/11/26 08:02:02;;;;;;;44.45;18.52;;;;;;;1.24;98.93;97888.91;5038227;28;20046;-61
2021/11/26 08:04:27;;;;;;;40.58;15.80;;;;;;;1.19;98.40;97880.81;5038214;28;20082;-61
2021/11/26 08:06:53;;;;;;;50.30;18.13;;;;;;;1.19;98.25;97875.53;5036231;28;20148;-61
2021/11/26 08:09:19;;;;;;;46.45;17.58;;;;;;;1.24;98.06;97870.44;5034936;28;20033;-61
2021/11/26 08:11:45;;;;;;;45.97;18.65;;;;;;;1.24;97.86;97865.94;5040026;28;20041;-61
2021/11/26 08:14:10;;;;;;;52.20;19.35;;;;;;;1.25;98.04;97857.03;5040079;28;20033;-61
2021/11/26 08:16:36;;;;;;;51.75;20.88;;;;;;;1.32;98.63;97853.50;5038867;28;20056;-61
2021/11/26 08:19:02;;;;;;;56.13;21.85;;;;;;;1.26;97.86;97858.63;5041916;28;20033;-62
2021/11/26 08:21:28;;;;;;;49.83;20.25;;;;;;;1.43;98.08;97850.97;5043475;28;20327;-61
2021/11/26 08:23:54;;;;;;;48.60;19.70;;;;;;;1.55;97.20;97855.53;5039727;28;20395;-61
2021/11/26 08:26:19;;;;;;;42.95;18.35;;;;;;;1.46;97.13;97841.81;5042610;28;20522;-61
2021/11/26 08:28:45;;;;;;;48.03;17.10;;;;;;;1.51;97.57;97842.75;5041986;28;20078;-62
2021/11/26 08:31:10;;;;;;;43.90;17.77;;;;;;;1.53;97.98;97841.75;5043081;28;20396;-62
2021/11/26 08:33:36;;;;;;;45.55;17.17;;;;;;;1.53;97.19;97829.34;5043722;28;20037;-62
2021/11/26 08:36:02;;;;;;;35.85;14.40;;;;;;;1.52;96.99;97830.38;5042391;28;20151;-63
2021/11/26 08:38:30;;;;;;;41.40;17.63;;;;;;;1.71;96.77;97828.56;5034583;28;20098;-63
2021/11/26 08:40:56;;;;;;;36.50;14.48;;;;;;;1.55;97.17;97818.56;5038246;28;20063;-61
2021/11/26 08:43:21;;;;;;;43.63;17.30;;;;;;;1.77;96.30;97811.81;5040140;28;20068;-61
2021/11/26 08:45:47;;;;;;;41.80;18.33;;;;;;;1.70;95.81;97813.75;5038828;28;20048;-63
2021/11/26 08:48:13;;;;;;;39.10;16.35;;;;;;;1.66;96.36;97817.84;5040527;28;20116;-63
2021/11/26 08:50:38;;;;;;;43.83;17.08;;;;;;;1.90;97.63;97805.59;5042008;28;20037;-61
2021/11/26 08:53:05;;;;;;;31.90;14.98;;;;;;;1.89;95.79;97807.41;5042164;28;20032;-62
2021/11/26 08:55:32;;;;;;;37.72;16.23;;;;;;;1.86;95.86;97805.22;5041111;28;20040;-61
2021/11/26 08:57:58;;;;;;;34.88;14.43;;;;;;;1.83;96.53;97803.03;5038954;28;20676;-61
2021/11/26 09:00:32;;;;;;;36.63;14.50;;;;;;;1.71;96.06;97802.16;5038524;28;20053;-61
2021/11/26 09:02:58;;;;;;;30.15;13.40;;;;;;;1.63;96.49;97797.16;5041240;28;20090;-61
2021/11/26 09:05:24;;;;;;;34.22;14.93;;;;;;;1.62;96.87;97788.44;5039216;28;20258;-61
2021/11/26 09:07:50;;;;;;;43.55;15.65;;;;;;;1.68;96.97;97792.03;5038605;28;20025;-61
2021/11/26 09:10:16;;;;;;;36.67;15.23;;;;;;;1.78;96.93;97791.50;5042858;28;20047;-61
2021/11/26 09:12:41;;;;;;;31.38;14.10;;;;;;;1.93;97.33;97778.72;5041121;28;20113;-62
2021/11/26 09:15:08;;;;;;;33.63;15.43;;;;;;;2.01;95.41;97774.97;5038330;28;20036;-62
2021/11/26 09:17:33;;;;;;;37.53;15.07;;;;;;;2.06;95.62;97764.53;5038784;28;20085;-62
2021/11/26 09:19:59;;;;;;;31.85;14.43;;;;;;;2.20;96.42;97768.63;5041616;28;20685;-62
2021/11/26 09:22:26;;;;;;;36.28;15.48;;;;;;;2.12;94.95;97763.63;5043811;28;20075;-62
2021/11/26 09:24:52;;;;;;;28.90;13.40;;;;;;;2.02;95.17;97782.69;5042056;28;20033;-62
2021/11/26 09:27:17;;;;;;;32.85;13.05;;;;;;;2.00;95.14;97778.63;5042727;28;20601;-62
2021/11/26 09:29:46;;;;;;;34.50;14.82;;;;;;;2.07;95.01;97776.72;5042902;28;20041;-62
2021/11/26 09:32:11;;;;;;;30.08;13.43;;;;;;;2.11;94.98;97765.47;5041473;28;20562;-62
2021/11/26 09:34:37;;;;;;;32.63;14.80;;;;;;;2.15;95.47;97764.00;5042585;28;20029;-62
2021/11/26 09:37:03;;;;;;;32.92;14.45;;;;;;;2.28;94.03;97760.38;5040014;28;20041;-62
2021/11/26 09:39:28;;;;;;;31.38;14.10;;;;;;;2.32;94.13;97761.53;5034221;28;20087;-62
2021/11/26 09:41:54;;;;;;;28.60;13.35;;;;;;;2.27;93.85;97750.84;5042279;28;20041;-62
2021/11/26 09:44:19;;;;;;;33.55;14.23;;;;;;;2.35;93.23;97757.66;5041960;28;20033;-62
2021/11/26 09:46:47;;;;;;;32.20;13.68;;;;;;;2.58;93.51;97743.66;5041816;28;20080;-62
2021/11/26 09:49:13;;;;;;;27.45;11.20;;;;;;;2.43;92.46;97745.94;5042055;28;20040;-62
2021/11/26 09:51:38;;;;;;;31.92;14.45;;;;;;;2.61;92.29;97747.69;5041805;28;20049;-62
2021/11/26 09:54:04;;;;;;;30.48;14.95;;;;;;;2.47;92.70;97736.50;5040632;28;20032;-62
2021/11/26 09:56:31;;;;;;;28.90;12.50;;;;;;;2.62;92.42;97733.44;5040711;28;20045;-62
2021/11/26 09:58:57;;;;;;;32.08;12.57;;;;;;;2.69;92.53;97731.50;5042545;28;20145;-62
2021/11/26 10:01:23;;;;;;;21.88;9.63;;;;;;;2.67;91.72;97730.91;5041774;28;20044;-62
2021/11/26 10:03:50;;;;;;;28.88;12.85;;;;;;;2.78;92.16;97722.19;5035570;28;20557;-62
2021/11/26 10:06:44;;;;;;;24.65;11.85;;;;;;;2.76;91.60;97718.97;5039440;28;20048;-62
2021/11/26 10:09:11;;;;;;;29.80;12.60;;;;;;;2.62;92.26;97709.63;5040486;28;20029;-62
2021/11/26 10:11:53;;;;;;;29.92;12.57;;;;;;;2.94;91.85;97707.47;5041642;28;20056;-62
2021/11/26 10:14:27;;;;;;;26.95;14.13;;;;;;;2.76;91.78;97703.09;5042620;28;20044;-62
2021/11/26 10:17:02;;;;;;;27.95;13.80;;;;;;;2.79;92.34;97694.69;5040795;28;20040;-62
2021/11/26 10:19:39;;;;;;;28.55;12.60;;;;;;;2.87;91.23;97683.78;5041923;28;20102;-62
2021/11/26 10:22:16;;;;;;;35.75;16.10;;;;;;;2.66;91.82;97694.91;5040363;28;20654;-62
2021/11/26 10:24:42;;;;;;;36.28;14.10;;;;;;;2.54;92.86;97679.81;5036596;28;20078;-62
2021/11/26 10:27:08;;;;;;;24.63;10.70;;;;;;;2.49;93.02;97673.63;5040007;28;20327;-62
2021/11/26 10:29:34;;;;;;;30.35;15.15;;;;;;;2.36;93.63;97672.00;5039478;28;20033;-62
2021/11/26 10:32:08;;;;;;;33.25;14.75;;;;;;;2.57;93.54;97673.28;5039361;28;20511;-62
2021/11/26 10:34:34;;;;;;;36.03;16.27;;;;;;;2.46;93.72;97671.44;5040160;28;20120;-62
2021/11/26 10:37:00;;;;;;;30.15;12.40;;;;;;;2.44;93.42;97657.63;5024493;28;20037;-62
2021/11/26 10:39:25;;;;;;;39.13;15.02;;;;;;;2.43;94.17;97648.91;5038913;28;20138;-62
2021/11/26 10:41:54;;;;;;;36.42;15.25;;;;;;;2.49;94.35;97647.16;5036491;28;20037;-62
2021/11/26 10:44:48;;;;;;;32.53;14.10;;;;;;;2.37;94.21;97636.56;5039258;28;20025;-62
2021/11/26 10:47:19;;;;;;;34.92;15.23;;;;;;;2.28;95.25;97633.47;5037880;28;20080;-62
2021/11/26 11:01:07;;;;;;;21.50;9.90;;;;;;;2.69;93.82;97596.56;5039022;28;20392;-61
2021/11/26 11:03:33;;;;;;;26.80;12.70;;;;;;;2.87;91.90;97588.50;5028782;28;20061;-61
2021/11/26 11:05:58;;;;;;;25.08;11.73;;;;;;;3.02;90.93;97588.81;5032436;28;20412;-62
2021/11/26 11:08:24;;;;;;;28.52;13.52;;;;;;;3.09;90.05;97579.94;5027103;28;20037;-61
2021/11/26 11:10:50;;;;;;;26.20;11.98;;;;;;;3.18;89.01;97579.34;5040083;28;20048;-62
2021/11/26 11:13:29;;;;;;;24.38;11.57;;;;;;;3.22;88.68;97569.91;5016666;28;20040;-62
2021/11/26 11:16:04;;;;;;;21.45;10.15;;;;;;;3.14;88.74;97559.66;5034765;28;20499;-61
2021/11/26 11:18:29;;;;;;;28.00;11.57;;;;;;;3.19;88.75;97565.03;5034030;28;20037;-62
2021/11/26 11:20:56;;;;;;;22.88;11.82;;;;;;;3.12;88.95;97553.81;5001859;28;20118;-64
2021/11/26 11:23:21;;;;;;;23.92;11.10;;;;;;;3.13;89.25;97549.31;5026701;28;20033;-62
2021/11/26 11:25:47;;;;;;;36.05;14.32;;;;;;;3.20;89.45;97545.50;5037639;28;20052;-62
2021/11/26 11:28:14;;;;;;;28.67;13.98;;;;;;;3.11;89.61;97546.09;5035988;28;20037;-62
2021/11/26 11:30:40;;;;;;;31.63;14.10;;;;;;;3.20;89.86;97536.75;5035204;28;20044;-62